aviador You're here:

KCKM Decoded Metar

in
Report Time2017-07-23 00:35:00
UTC Time2017-07-23 00:51:01
Flight Rules vfr VFR
WindCalm
Visibility9999 m
Phenomena:N/A
Clouds:N/A
Expected CloudBase > 1,200 ft AGL from Temp-Dew spread
CeilingNone
Temp30°C
Dew Point27°C (84% RH)
Heat Index38.8°C
QNH1012 hPa
Raw Report
KCKM 230035Z AUTO 00000KT 10SM 30/27 A2989 RMK A01=

Extra information for KCKM:More info

Social comments